Estación Meteorológica Peña el Pijo (Robertgarden) [ 07/23/17 10:55:02 CEST ]

Fecha Hora Presion(HPa) Temp (°C) Humedad % Rocio (°C) Viento ( m/s) Direccion Lluvia 1Hora(mm) Lluvia 24H(mm) LLuvia Total(mm)
2017-Jul-21 01:01:50 1007.900 17.9 63 10.7         1437.96
2017-Jul-21 02:01:41 1007.700 16.4 66 10.0         1437.96
2017-Jul-21 03:01:19 1007.400 15.3 69 9.7         1437.96
2017-Jul-21 04:01:22 1007.200 14.5 70 9.1         1437.96
2017-Jul-21 05:01:20 1006.900 14.1 72 9.1         1437.96
2017-Jul-21 06:01:29 1006.700 13.8 71 8.6         1437.96
2017-Jul-21 07:01:52 1006.800 13.9 72 8.9         1437.96
2017-Jul-21 08:01:41 1007.100 14.9 71 9.7         1437.96
2017-Jul-21 09:01:39 1007.200 17.9 66 11.4         1437.96
2017-Jul-21 10:01:50 1007.700 20.1 58 11.5         1437.96
2017-Jul-21 11:01:51 1007.200 25.9 45 13.0         1437.96
2017-Jul-21 12:01:57 1007.000 31.9 30 12.6         1437.96
2017-Jul-21 13:01:38 1007.200 33.7 25 10.7         1437.96
2017-Jul-21 14:01:49 1006.700 33.5 25 10.5         1437.96
2017-Jul-21 15:01:37 1006.400 35.5 25 12.2         1437.96
2017-Jul-21 16:01:35 1006.100 34.9 26 12.3 0.5 S     1437.96
2017-Jul-21 17:01:39 1006.200 31.9 32 13.1         1437.96
2017-Jul-21 18:01:40 1006.100 30.8 32 12.1         1437.96
2017-Jul-21 19:01:45 1005.900 31.1 29 10.9         1437.96
2017-Jul-21 20:01:37 1006.800 30.8 38 14.8         1437.96
2017-Jul-21 21:01:47 1007.200 26.4 49 14.8         1437.96
2017-Jul-21 22:02:04 1008.000 23.5 38 8.3         1437.96
2017-Jul-21 23:02:00 1008.800 19.8 47 8.1         1437.96

Temperatura Máxima:35°    Temperatura Mínima:13°
Presión Máxima:1008.800 Hpa    Presión Mínima:1005.900 Hpa


Volver